sensor_id;sensor_type;location;lat;lon;timestamp;P1;durP1;ratioP1;P2;durP2;ratioP2
48002;SDS011;33768;48.578;11.574;2022-09-13T00:01:09;10.83;;;7.37;;
48002;SDS011;33768;48.578;11.574;2022-09-13T00:04:13;9.23;;;8.13;;
48002;SDS011;33768;48.578;11.574;2022-09-13T00:07:17;12.50;;;8.70;;
48002;SDS011;33768;48.578;11.574;2022-09-13T00:10:22;10.10;;;8.67;;
48002;SDS011;33768;48.578;11.574;2022-09-13T00:13:27;12.43;;;10.27;;
48002;SDS011;33768;48.578;11.574;2022-09-13T00:16:31;10.57;;;8.90;;
48002;SDS011;33768;48.578;11.574;2022-09-13T00:19:36;12.07;;;9.67;;
48002;SDS011;33768;48.578;11.574;2022-09-13T00:22:40;11.10;;;9.90;;
48002;SDS011;33768;48.578;11.574;2022-09-13T00:25:44;12.53;;;9.47;;
48002;SDS011;33768;48.578;11.574;2022-09-13T00:28:49;9.53;;;7.47;;
48002;SDS011;33768;48.578;11.574;2022-09-13T00:31:58;8.70;;;7.80;;
48002;SDS011;33768;48.578;11.574;2022-09-13T00:35:03;9.83;;;8.63;;
48002;SDS011;33768;48.578;11.574;2022-09-13T00:38:08;9.27;;;8.27;;
48002;SDS011;33768;48.578;11.574;2022-09-13T00:41:14;12.07;;;9.07;;
48002;SDS011;33768;48.578;11.574;2022-09-13T00:48:01;10.70;;;8.77;;
48002;SDS011;33768;48.578;11.574;2022-09-13T00:51:09;13.40;;;9.23;;
48002;SDS011;33768;48.578;11.574;2022-09-13T00:54:14;12.17;;;9.43;;
48002;SDS011;33768;48.578;11.574;2022-09-13T00:57:20;12.13;;;8.73;;
48002;SDS011;33768;48.578;11.574;2022-09-13T01:00:26;11.10;;;8.93;;
48002;SDS011;33768;48.578;11.574;2022-09-13T01:03:31;11.40;;;8.70;;
48002;SDS011;33768;48.578;11.574;2022-09-13T01:06:37;9.57;;;8.17;;
48002;SDS011;33768;48.578;11.574;2022-09-13T01:09:44;9.83;;;7.90;;
48002;SDS011;33768;48.578;11.574;2022-09-13T01:16:03;10.07;;;6.93;;
48002;SDS011;33768;48.578;11.574;2022-09-13T01:19:08;9.67;;;7.90;;
48002;SDS011;33768;48.578;11.574;2022-09-13T01:29:03;10.20;;;7.93;;
48002;SDS011;33768;48.578;11.574;2022-09-13T01:39:56;10.73;;;7.70;;
48002;SDS011;33768;48.578;11.574;2022-09-13T01:46:50;9.50;;;6.57;;
48002;SDS011;33768;48.578;11.574;2022-09-13T01:54:09;7.93;;;7.13;;
48002;SDS011;33768;48.578;11.574;2022-09-13T02:01:03;9.47;;;7.10;;
48002;SDS011;33768;48.578;11.574;2022-09-13T02:04:26;9.03;;;7.13;;
48002;SDS011;33768;48.578;11.574;2022-09-13T02:07:37;8.70;;;7.27;;
48002;SDS011;33768;48.578;11.574;2022-09-13T02:10:45;10.70;;;6.97;;
48002;SDS011;33768;48.578;11.574;2022-09-13T02:17:20;9.03;;;6.33;;
48002;SDS011;33768;48.578;11.574;2022-09-13T02:20:31;7.63;;;6.63;;
48002;SDS011;33768;48.578;11.574;2022-09-13T02:23:40;9.30;;;7.93;;
48002;SDS011;33768;48.578;11.574;2022-09-13T02:26:52;9.93;;;7.97;;
48002;SDS011;33768;48.578;11.574;2022-09-13T02:30:05;9.50;;;7.67;;
48002;SDS011;33768;48.578;11.574;2022-09-13T02:33:14;10.57;;;8.40;;
48002;SDS011;33768;48.578;11.574;2022-09-13T02:36:23;11.47;;;7.93;;
48002;SDS011;33768;48.578;11.574;2022-09-13T02:39:30;8.33;;;7.43;;
48002;SDS011;33768;48.578;11.574;2022-09-13T02:42:41;10.30;;;7.70;;
48002;SDS011;33768;48.578;11.574;2022-09-13T02:45:54;10.73;;;8.30;;
48002;SDS011;33768;48.578;11.574;2022-09-13T02:49:14;9.80;;;7.43;;
48002;SDS011;33768;48.578;11.574;2022-09-13T02:52:48;8.43;;;7.30;;
48002;SDS011;33768;48.578;11.574;2022-09-13T02:56:19;8.70;;;7.53;;
48002;SDS011;33768;48.578;11.574;2022-09-13T02:59:29;8.90;;;7.63;;
48002;SDS011;33768;48.578;11.574;2022-09-13T03:02:33;10.90;;;7.73;;
48002;SDS011;33768;48.578;11.574;2022-09-13T03:05:41;10.30;;;7.50;;
48002;SDS011;33768;48.578;11.574;2022-09-13T03:08:46;10.27;;;7.60;;
48002;SDS011;33768;48.578;11.574;2022-09-13T03:12:03;9.80;;;8.27;;
48002;SDS011;33768;48.578;11.574;2022-09-13T03:18:36;8.63;;;7.73;;
48002;SDS011;33768;48.578;11.574;2022-09-13T03:22:00;9.80;;;7.70;;
48002;SDS011;33768;48.578;11.574;2022-09-13T03:28:41;9.97;;;8.20;;
48002;SDS011;33768;48.578;11.574;2022-09-13T03:31:49;8.70;;;7.80;;
48002;SDS011;33768;48.578;11.574;2022-09-13T03:38:40;11.27;;;8.27;;
48002;SDS011;33768;48.578;11.574;2022-09-13T03:41:57;9.10;;;8.10;;
48002;SDS011;33768;48.578;11.574;2022-09-13T03:45:08;12.27;;;7.93;;
48002;SDS011;33768;48.578;11.574;2022-09-13T03:48:14;9.63;;;7.73;;
48002;SDS011;33768;48.578;11.574;2022-09-13T03:51:20;8.73;;;7.57;;
48002;SDS011;33768;48.578;11.574;2022-09-13T03:54:27;9.30;;;7.77;;
48002;SDS011;33768;48.578;11.574;2022-09-13T03:57:33;8.70;;;7.57;;
48002;SDS011;33768;48.578;11.574;2022-09-13T04:00:39;12.30;;;7.17;;
48002;SDS011;33768;48.578;11.574;2022-09-13T04:03:44;10.43;;;7.67;;
48002;SDS011;33768;48.578;11.574;2022-09-13T04:06:48;9.37;;;7.23;;
48002;SDS011;33768;48.578;11.574;2022-09-13T04:09:53;13.13;;;7.23;;
48002;SDS011;33768;48.578;11.574;2022-09-13T04:12:57;8.97;;;7.60;;
48002;SDS011;33768;48.578;11.574;2022-09-13T04:16:03;9.23;;;7.77;;
48002;SDS011;33768;48.578;11.574;2022-09-13T04:19:08;9.27;;;7.67;;
48002;SDS011;33768;48.578;11.574;2022-09-13T04:22:13;11.97;;;7.57;;
48002;SDS011;33768;48.578;11.574;2022-09-13T04:25:18;15.77;;;9.13;;
48002;SDS011;33768;48.578;11.574;2022-09-13T04:28:23;11.73;;;8.47;;
48002;SDS011;33768;48.578;11.574;2022-09-13T04:31:27;11.57;;;8.10;;
48002;SDS011;33768;48.578;11.574;2022-09-13T04:34:31;11.40;;;8.70;;
48002;SDS011;33768;48.578;11.574;2022-09-13T04:37:36;10.87;;;8.23;;
48002;SDS011;33768;48.578;11.574;2022-09-13T04:40:41;13.87;;;8.60;;
48002;SDS011;33768;48.578;11.574;2022-09-13T04:43:50;15.13;;;8.27;;
48002;SDS011;33768;48.578;11.574;2022-09-13T04:46:54;10.77;;;7.37;;
48002;SDS011;33768;48.578;11.574;2022-09-13T04:49:58;12.13;;;7.90;;
48002;SDS011;33768;48.578;11.574;2022-09-13T04:53:02;10.13;;;7.97;;
48002;SDS011;33768;48.578;11.574;2022-09-13T04:56:07;9.83;;;8.07;;
48002;SDS011;33768;48.578;11.574;2022-09-13T04:59:13;10.37;;;7.97;;
48002;SDS011;33768;48.578;11.574;2022-09-13T05:02:17;10.13;;;8.23;;
48002;SDS011;33768;48.578;11.574;2022-09-13T05:05:22;9.70;;;8.20;;
48002;SDS011;33768;48.578;11.574;2022-09-13T05:08:28;8.50;;;7.60;;
48002;SDS011;33768;48.578;11.574;2022-09-13T05:11:33;10.70;;;7.30;;
48002;SDS011;33768;48.578;11.574;2022-09-13T05:14:37;13.27;;;7.80;;
48002;SDS011;33768;48.578;11.574;2022-09-13T05:17:41;23.53;;;9.60;;
48002;SDS011;33768;48.578;11.574;2022-09-13T05:20:46;10.93;;;7.83;;
48002;SDS011;33768;48.578;11.574;2022-09-13T05:23:50;19.63;;;7.73;;
48002;SDS011;33768;48.578;11.574;2022-09-13T05:26:55;14.93;;;8.67;;
48002;SDS011;33768;48.578;11.574;2022-09-13T05:29:59;14.20;;;7.77;;
48002;SDS011;33768;48.578;11.574;2022-09-13T05:33:03;20.77;;;10.97;;
48002;SDS011;33768;48.578;11.574;2022-09-13T05:36:08;15.50;;;11.00;;
48002;SDS011;33768;48.578;11.574;2022-09-13T05:39:13;23.90;;;11.63;;
48002;SDS011;33768;48.578;11.574;2022-09-13T05:42:20;18.23;;;10.37;;
48002;SDS011;33768;48.578;11.574;2022-09-13T05:45:24;18.90;;;10.23;;
48002;SDS011;33768;48.578;11.574;2022-09-13T05:48:28;17.87;;;9.83;;
48002;SDS011;33768;48.578;11.574;2022-09-13T05:51:33;16.40;;;9.20;;
48002;SDS011;33768;48.578;11.574;2022-09-13T05:54:37;14.40;;;8.93;;
48002;SDS011;33768;48.578;11.574;2022-09-13T05:57:42;15.57;;;8.23;;
48002;SDS011;33768;48.578;11.574;2022-09-13T06:00:51;10.70;;;7.83;;
48002;SDS011;33768;48.578;11.574;2022-09-13T06:03:57;12.03;;;8.40;;
48002;SDS011;33768;48.578;11.574;2022-09-13T06:07:01;14.27;;;8.27;;
48002;SDS011;33768;48.578;11.574;2022-09-13T06:10:06;18.60;;;8.20;;
48002;SDS011;33768;48.578;11.574;2022-09-13T06:13:11;27.87;;;11.57;;
48002;SDS011;33768;48.578;11.574;2022-09-13T06:16:15;36.43;;;13.60;;
48002;SDS011;33768;48.578;11.574;2022-09-13T06:19:20;20.67;;;11.57;;
48002;SDS011;33768;48.578;11.574;2022-09-13T06:22:24;16.37;;;9.77;;
48002;SDS011;33768;48.578;11.574;2022-09-13T06:25:28;21.73;;;8.87;;
48002;SDS011;33768;48.578;11.574;2022-09-13T06:28:33;11.00;;;8.53;;
48002;SDS011;33768;48.578;11.574;2022-09-13T06:31:37;10.90;;;7.10;;
48002;SDS011;33768;48.578;11.574;2022-09-13T06:34:46;11.23;;;6.23;;
48002;SDS011;33768;48.578;11.574;2022-09-13T06:37:53;9.03;;;6.90;;
48002;SDS011;33768;48.578;11.574;2022-09-13T06:40:59;11.27;;;6.73;;
48002;SDS011;33768;48.578;11.574;2022-09-13T06:44:14;15.20;;;8.27;;
48002;SDS011;33768;48.578;11.574;2022-09-13T06:47:18;10.07;;;6.73;;
48002;SDS011;33768;48.578;11.574;2022-09-13T06:50:23;9.27;;;5.77;;
48002;SDS011;33768;48.578;11.574;2022-09-13T06:53:27;6.30;;;5.43;;
48002;SDS011;33768;48.578;11.574;2022-09-13T06:56:33;10.60;;;5.30;;
48002;SDS011;33768;48.578;11.574;2022-09-13T06:59:39;6.73;;;4.83;;
48002;SDS011;33768;48.578;11.574;2022-09-13T07:02:43;10.33;;;4.73;;
48002;SDS011;33768;48.578;11.574;2022-09-13T07:05:47;6.63;;;4.40;;
48002;SDS011;33768;48.578;11.574;2022-09-13T07:08:51;5.40;;;4.13;;
48002;SDS011;33768;48.578;11.574;2022-09-13T07:11:56;4.57;;;3.40;;
48002;SDS011;33768;48.578;11.574;2022-09-13T07:15:00;5.50;;;3.90;;
48002;SDS011;33768;48.578;11.574;2022-09-13T07:18:05;4.40;;;3.60;;
48002;SDS011;33768;48.578;11.574;2022-09-13T07:21:10;4.00;;;3.23;;
48002;SDS011;33768;48.578;11.574;2022-09-13T07:24:18;4.17;;;3.30;;
48002;SDS011;33768;48.578;11.574;2022-09-13T07:27:23;3.57;;;3.23;;
48002;SDS011;33768;48.578;11.574;2022-09-13T07:30:28;4.43;;;3.17;;
48002;SDS011;33768;48.578;11.574;2022-09-13T07:33:32;5.53;;;3.20;;
48002;SDS011;33768;48.578;11.574;2022-09-13T07:36:37;2.87;;;2.67;;
48002;SDS011;33768;48.578;11.574;2022-09-13T07:39:41;4.37;;;2.77;;
48002;SDS011;33768;48.578;11.574;2022-09-13T07:42:45;3.63;;;2.70;;
48002;SDS011;33768;48.578;11.574;2022-09-13T07:45:56;2.57;;;2.37;;
48002;SDS011;33768;48.578;11.574;2022-09-13T07:49:01;4.37;;;2.80;;
48002;SDS011;33768;48.578;11.574;2022-09-13T07:52:06;3.63;;;2.80;;
48002;SDS011;33768;48.578;11.574;2022-09-13T07:55:10;3.37;;;2.70;;
48002;SDS011;33768;48.578;11.574;2022-09-13T07:58:15;5.10;;;2.77;;
48002;SDS011;33768;48.578;11.574;2022-09-13T08:01:36;4.47;;;2.60;;
48002;SDS011;33768;48.578;11.574;2022-09-13T08:04:42;3.80;;;2.70;;
48002;SDS011;33768;48.578;11.574;2022-09-13T08:07:46;3.40;;;2.50;;
48002;SDS011;33768;48.578;11.574;2022-09-13T08:10:50;4.67;;;2.77;;
48002;SDS011;33768;48.578;11.574;2022-09-13T08:13:55;3.70;;;2.40;;
48002;SDS011;33768;48.578;11.574;2022-09-13T08:16:59;2.90;;;2.60;;
48002;SDS011;33768;48.578;11.574;2022-09-13T08:20:04;6.47;;;2.67;;
48002;SDS011;33768;48.578;11.574;2022-09-13T08:23:09;6.07;;;2.07;;
48002;SDS011;33768;48.578;11.574;2022-09-13T08:26:15;3.80;;;2.17;;
48002;SDS011;33768;48.578;11.574;2022-09-13T08:29:19;4.47;;;2.40;;
48002;SDS011;33768;48.578;11.574;2022-09-13T08:32:24;2.97;;;1.87;;
48002;SDS011;33768;48.578;11.574;2022-09-13T08:35:28;3.70;;;1.90;;
48002;SDS011;33768;48.578;11.574;2022-09-13T08:38:33;7.43;;;2.03;;
48002;SDS011;33768;48.578;11.574;2022-09-13T08:44:52;7.43;;;1.80;;
48002;SDS011;33768;48.578;11.574;2022-09-13T08:48:00;3.63;;;1.93;;
48002;SDS011;33768;48.578;11.574;2022-09-13T08:51:22;4.50;;;1.73;;
48002;SDS011;33768;48.578;11.574;2022-09-13T08:54:39;3.87;;;1.70;;
48002;SDS011;33768;48.578;11.574;2022-09-13T08:57:48;5.90;;;1.50;;
48002;SDS011;33768;48.578;11.574;2022-09-13T09:04:44;2.72;;;1.45;;
48002;SDS011;33768;48.578;11.574;2022-09-13T09:11:09;3.00;;;1.60;;
48002;SDS011;33768;48.578;11.574;2022-09-13T09:14:30;2.10;;;1.35;;
48002;SDS011;33768;48.578;11.574;2022-09-13T09:17:48;3.35;;;1.30;;
48002;SDS011;33768;48.578;11.574;2022-09-13T09:20:56;2.38;;;1.30;;
48002;SDS011;33768;48.578;11.574;2022-09-13T09:24:02;3.40;;;1.35;;
48002;SDS011;33768;48.578;11.574;2022-09-13T09:27:11;4.13;;;1.35;;
48002;SDS011;33768;48.578;11.574;2022-09-13T09:30:18;2.35;;;1.23;;
48002;SDS011;33768;48.578;11.574;2022-09-13T09:33:24;4.20;;;1.50;;
48002;SDS011;33768;48.578;11.574;2022-09-13T09:40:24;2.50;;;1.40;;
48002;SDS011;33768;48.578;11.574;2022-09-13T09:43:43;2.38;;;1.50;;
48002;SDS011;33768;48.578;11.574;2022-09-13T09:47:01;3.13;;;1.30;;
48002;SDS011;33768;48.578;11.574;2022-09-13T09:50:17;2.80;;;1.23;;
48002;SDS011;33768;48.578;11.574;2022-09-13T09:53:26;3.47;;;1.40;;
48002;SDS011;33768;48.578;11.574;2022-09-13T09:56:33;2.53;;;1.25;;
48002;SDS011;33768;48.578;11.574;2022-09-13T09:59:39;2.40;;;1.30;;
48002;SDS011;33768;48.578;11.574;2022-09-13T10:02:43;16.50;;;2.55;;
48002;SDS011;33768;48.578;11.574;2022-09-13T10:05:48;11.70;;;1.60;;
48002;SDS011;33768;48.578;11.574;2022-09-13T10:08:53;3.00;;;1.33;;
48002;SDS011;33768;48.578;11.574;2022-09-13T10:12:02;1.42;;;1.08;;
48002;SDS011;33768;48.578;11.574;2022-09-13T10:15:17;3.75;;;1.30;;
48002;SDS011;33768;48.578;11.574;2022-09-13T10:18:23;1.65;;;1.27;;
48002;SDS011;33768;48.578;11.574;2022-09-13T10:21:29;2.67;;;1.10;;
48002;SDS011;33768;48.578;11.574;2022-09-13T10:24:33;9.80;;;1.75;;
48002;SDS011;33768;48.578;11.574;2022-09-13T10:27:38;2.25;;;1.08;;
48002;SDS011;33768;48.578;11.574;2022-09-13T10:30:51;2.83;;;0.93;;
48002;SDS011;33768;48.578;11.574;2022-09-13T10:33:59;7.47;;;1.70;;
48002;SDS011;33768;48.578;11.574;2022-09-13T10:37:05;4.38;;;1.10;;
48002;SDS011;33768;48.578;11.574;2022-09-13T10:43:30;4.43;;;1.40;;
48002;SDS011;33768;48.578;11.574;2022-09-13T10:46:36;1.98;;;1.20;;
48002;SDS011;33768;48.578;11.574;2022-09-13T10:55:57;2.67;;;1.20;;
48002;SDS011;33768;48.578;11.574;2022-09-13T11:02:34;1.45;;;1.33;;
48002;SDS011;33768;48.578;11.574;2022-09-13T11:05:43;2.63;;;1.75;;
48002;SDS011;33768;48.578;11.574;2022-09-13T11:12:17;5.38;;;1.23;;
48002;SDS011;33768;48.578;11.574;2022-09-13T11:15:50;5.22;;;1.27;;
48002;SDS011;33768;48.578;11.574;2022-09-13T11:19:06;4.07;;;1.40;;
48002;SDS011;33768;48.578;11.574;2022-09-13T11:25:48;4.43;;;1.48;;
48002;SDS011;33768;48.578;11.574;2022-09-13T11:55:58;8.65;;;1.52;;
48002;SDS011;33768;48.578;11.574;2022-09-13T11:59:08;4.55;;;1.40;;
48002;SDS011;33768;48.578;11.574;2022-09-13T12:02:31;6.30;;;1.42;;
48002;SDS011;33768;48.578;11.574;2022-09-13T12:09:16;4.72;;;1.35;;
48002;SDS011;33768;48.578;11.574;2022-09-13T12:12:26;4.65;;;1.40;;
48002;SDS011;33768;48.578;11.574;2022-09-13T12:18:45;2.45;;;1.45;;
48002;SDS011;33768;48.578;11.574;2022-09-13T12:21:54;2.90;;;1.25;;
48002;SDS011;33768;48.578;11.574;2022-09-13T12:25:05;3.55;;;1.60;;
48002;SDS011;33768;48.578;11.574;2022-09-13T12:28:22;3.33;;;1.48;;
48002;SDS011;33768;48.578;11.574;2022-09-13T12:31:30;9.57;;;2.08;;
48002;SDS011;33768;48.578;11.574;2022-09-13T12:34:42;3.05;;;1.58;;
48002;SDS011;33768;48.578;11.574;2022-09-13T12:42:02;2.10;;;1.20;;
48002;SDS011;33768;48.578;11.574;2022-09-13T12:48:40;2.00;;;1.05;;
48002;SDS011;33768;48.578;11.574;2022-09-13T12:55:25;3.67;;;1.00;;
48002;SDS011;33768;48.578;11.574;2022-09-13T13:05:40;3.05;;;1.13;;
48002;SDS011;33768;48.578;11.574;2022-09-13T13:08:50;1.92;;;1.17;;
48002;SDS011;33768;48.578;11.574;2022-09-13T13:11:57;1.65;;;1.10;;
48002;SDS011;33768;48.578;11.574;2022-09-13T13:18:29;1.27;;;1.15;;
48002;SDS011;33768;48.578;11.574;2022-09-13T13:21:36;2.78;;;1.17;;
48002;SDS011;33768;48.578;11.574;2022-09-13T13:24:44;5.30;;;1.38;;
48002;SDS011;33768;48.578;11.574;2022-09-13T13:27:50;1.50;;;1.05;;
48002;SDS011;33768;48.578;11.574;2022-09-13T13:30:57;2.40;;;1.20;;
48002;SDS011;33768;48.578;11.574;2022-09-13T13:40:21;1.48;;;1.10;;
48002;SDS011;33768;48.578;11.574;2022-09-13T13:43:29;3.10;;;1.38;;
48002;SDS011;33768;48.578;11.574;2022-09-13T13:46:35;2.78;;;1.10;;
48002;SDS011;33768;48.578;11.574;2022-09-13T13:52:53;19.75;;;1.90;;
48002;SDS011;33768;48.578;11.574;2022-09-13T13:56:07;6.15;;;1.30;;
48002;SDS011;33768;48.578;11.574;2022-09-13T13:59:29;3.35;;;1.27;;
48002;SDS011;33768;48.578;11.574;2022-09-13T14:09:07;2.60;;;1.55;;
48002;SDS011;33768;48.578;11.574;2022-09-13T14:12:27;2.58;;;1.30;;
48002;SDS011;33768;48.578;11.574;2022-09-13T14:19:27;3.05;;;1.20;;
48002;SDS011;33768;48.578;11.574;2022-09-13T14:22:34;4.63;;;1.52;;
48002;SDS011;33768;48.578;11.574;2022-09-13T14:25:38;1.48;;;1.38;;
48002;SDS011;33768;48.578;11.574;2022-09-13T14:28:42;3.15;;;1.40;;
48002;SDS011;33768;48.578;11.574;2022-09-13T14:31:47;9.50;;;1.98;;
48002;SDS011;33768;48.578;11.574;2022-09-13T14:35:03;2.85;;;1.65;;
48002;SDS011;33768;48.578;11.574;2022-09-13T14:38:19;5.15;;;2.30;;
48002;SDS011;33768;48.578;11.574;2022-09-13T14:41:31;1.98;;;1.83;;
48002;SDS011;33768;48.578;11.574;2022-09-13T14:44:37;3.08;;;1.75;;
48002;SDS011;33768;48.578;11.574;2022-09-13T14:47:49;3.22;;;1.73;;
48002;SDS011;33768;48.578;11.574;2022-09-13T14:54:14;5.70;;;1.60;;
48002;SDS011;33768;48.578;11.574;2022-09-13T14:57:34;5.97;;;1.65;;
48002;SDS011;33768;48.578;11.574;2022-09-13T15:00:45;1.80;;;1.30;;
48002;SDS011;33768;48.578;11.574;2022-09-13T15:03:58;3.17;;;1.50;;
48002;SDS011;33768;48.578;11.574;2022-09-13T15:07:46;5.05;;;1.77;;
48002;SDS011;33768;48.578;11.574;2022-09-13T15:10:33;7.78;;;2.60;;
48002;SDS011;33768;48.578;11.574;2022-09-13T15:13:46;3.03;;;1.88;;
48002;SDS011;33768;48.578;11.574;2022-09-13T15:17:11;4.35;;;2.05;;
48002;SDS011;33768;48.578;11.574;2022-09-13T15:20:16;6.13;;;2.43;;
48002;SDS011;33768;48.578;11.574;2022-09-13T15:26:30;4.07;;;2.30;;
48002;SDS011;33768;48.578;11.574;2022-09-13T15:29:35;5.13;;;2.50;;
48002;SDS011;33768;48.578;11.574;2022-09-13T15:32:41;5.73;;;2.40;;
48002;SDS011;33768;48.578;11.574;2022-09-13T15:35:46;6.40;;;2.20;;
48002;SDS011;33768;48.578;11.574;2022-09-13T15:39:12;3.97;;;2.20;;
48002;SDS011;33768;48.578;11.574;2022-09-13T15:42:22;2.67;;;2.10;;
48002;SDS011;33768;48.578;11.574;2022-09-13T15:45:27;8.13;;;2.30;;
48002;SDS011;33768;48.578;11.574;2022-09-13T15:48:34;2.30;;;2.10;;
48002;SDS011;33768;48.578;11.574;2022-09-13T15:51:40;5.97;;;2.73;;
48002;SDS011;33768;48.578;11.574;2022-09-13T15:54:46;7.23;;;2.70;;
48002;SDS011;33768;48.578;11.574;2022-09-13T15:57:54;9.33;;;2.30;;
48002;SDS011;33768;48.578;11.574;2022-09-13T16:00:58;11.27;;;2.60;;
48002;SDS011;33768;48.578;11.574;2022-09-13T16:04:02;5.93;;;2.60;;
48002;SDS011;33768;48.578;11.574;2022-09-13T16:07:08;7.17;;;2.93;;
48002;SDS011;33768;48.578;11.574;2022-09-13T16:10:17;3.90;;;2.80;;
48002;SDS011;33768;48.578;11.574;2022-09-13T16:13:23;4.53;;;2.30;;
48002;SDS011;33768;48.578;11.574;2022-09-13T16:16:28;7.63;;;2.40;;
48002;SDS011;33768;48.578;11.574;2022-09-13T16:19:32;5.77;;;2.67;;
48002;SDS011;33768;48.578;11.574;2022-09-13T16:22:37;6.43;;;2.20;;
48002;SDS011;33768;48.578;11.574;2022-09-13T16:25:42;5.67;;;2.37;;
48002;SDS011;33768;48.578;11.574;2022-09-13T16:28:46;2.37;;;2.10;;
48002;SDS011;33768;48.578;11.574;2022-09-13T16:31:50;3.93;;;2.70;;
48002;SDS011;33768;48.578;11.574;2022-09-13T16:34:54;10.20;;;3.17;;
48002;SDS011;33768;48.578;11.574;2022-09-13T16:38:00;8.23;;;2.97;;
48002;SDS011;33768;48.578;11.574;2022-09-13T16:41:04;6.07;;;2.67;;
48002;SDS011;33768;48.578;11.574;2022-09-13T16:44:09;50.50;;;6.17;;
48002;SDS011;33768;48.578;11.574;2022-09-13T16:47:13;11.30;;;3.83;;
48002;SDS011;33768;48.578;11.574;2022-09-13T16:50:17;11.13;;;3.93;;
48002;SDS011;33768;48.578;11.574;2022-09-13T16:53:22;6.17;;;3.00;;
48002;SDS011;33768;48.578;11.574;2022-09-13T16:56:26;11.43;;;3.70;;
48002;SDS011;33768;48.578;11.574;2022-09-13T16:59:30;7.70;;;3.27;;
48002;SDS011;33768;48.578;11.574;2022-09-13T17:02:35;9.37;;;3.57;;
48002;SDS011;33768;48.578;11.574;2022-09-13T17:05:40;10.47;;;3.40;;
48002;SDS011;33768;48.578;11.574;2022-09-13T17:08:47;11.40;;;3.80;;
48002;SDS011;33768;48.578;11.574;2022-09-13T17:11:53;12.40;;;4.83;;
48002;SDS011;33768;48.578;11.574;2022-09-13T17:14:57;12.17;;;4.90;;
48002;SDS011;33768;48.578;11.574;2022-09-13T17:18:02;9.97;;;4.20;;
48002;SDS011;33768;48.578;11.574;2022-09-13T17:21:06;7.77;;;3.30;;
48002;SDS011;33768;48.578;11.574;2022-09-13T17:24:11;6.83;;;3.40;;
48002;SDS011;33768;48.578;11.574;2022-09-13T17:27:15;12.63;;;3.20;;
48002;SDS011;33768;48.578;11.574;2022-09-13T17:30:19;8.53;;;3.83;;
48002;SDS011;33768;48.578;11.574;2022-09-13T17:33:23;7.87;;;3.37;;
48002;SDS011;33768;48.578;11.574;2022-09-13T17:36:27;10.27;;;3.90;;
48002;SDS011;33768;48.578;11.574;2022-09-13T17:39:31;8.00;;;3.97;;
48002;SDS011;33768;48.578;11.574;2022-09-13T17:42:37;24.27;;;4.17;;
48002;SDS011;33768;48.578;11.574;2022-09-13T17:45:54;10.33;;;3.73;;
48002;SDS011;33768;48.578;11.574;2022-09-13T17:48:59;11.93;;;3.20;;
48002;SDS011;33768;48.578;11.574;2022-09-13T17:52:03;8.97;;;3.80;;
48002;SDS011;33768;48.578;11.574;2022-09-13T17:55:07;4.77;;;3.70;;
48002;SDS011;33768;48.578;11.574;2022-09-13T17:58:12;4.23;;;3.73;;
48002;SDS011;33768;48.578;11.574;2022-09-13T18:01:16;5.90;;;3.87;;
48002;SDS011;33768;48.578;11.574;2022-09-13T18:04:20;5.43;;;3.63;;
48002;SDS011;33768;48.578;11.574;2022-09-13T18:07:26;6.43;;;4.07;;
48002;SDS011;33768;48.578;11.574;2022-09-13T18:10:30;4.87;;;4.00;;
48002;SDS011;33768;48.578;11.574;2022-09-13T18:13:35;5.00;;;4.50;;
48002;SDS011;33768;48.578;11.574;2022-09-13T18:16:39;4.63;;;4.23;;
48002;SDS011;33768;48.578;11.574;2022-09-13T18:19:44;6.10;;;4.43;;
48002;SDS011;33768;48.578;11.574;2022-09-13T18:22:48;5.23;;;4.33;;
48002;SDS011;33768;48.578;11.574;2022-09-13T18:26:00;5.33;;;4.37;;
48002;SDS011;33768;48.578;11.574;2022-09-13T18:29:09;10.27;;;4.60;;
48002;SDS011;33768;48.578;11.574;2022-09-13T18:32:15;9.30;;;4.70;;
48002;SDS011;33768;48.578;11.574;2022-09-13T18:35:19;4.80;;;4.40;;
48002;SDS011;33768;48.578;11.574;2022-09-13T18:38:23;6.80;;;4.63;;
48002;SDS011;33768;48.578;11.574;2022-09-13T18:41:34;7.90;;;4.07;;
48002;SDS011;33768;48.578;11.574;2022-09-13T18:44:40;6.17;;;4.60;;
48002;SDS011;33768;48.578;11.574;2022-09-13T18:47:45;8.60;;;4.73;;
48002;SDS011;33768;48.578;11.574;2022-09-13T18:50:49;6.90;;;4.50;;
48002;SDS011;33768;48.578;11.574;2022-09-13T18:53:53;8.20;;;5.00;;
48002;SDS011;33768;48.578;11.574;2022-09-13T18:56:58;7.50;;;4.50;;
48002;SDS011;33768;48.578;11.574;2022-09-13T19:00:04;6.57;;;4.20;;
48002;SDS011;33768;48.578;11.574;2022-09-13T19:03:08;8.47;;;4.57;;
48002;SDS011;33768;48.578;11.574;2022-09-13T19:09:19;9.67;;;4.83;;
48002;SDS011;33768;48.578;11.574;2022-09-13T19:12:25;6.13;;;3.97;;
48002;SDS011;33768;48.578;11.574;2022-09-13T19:15:30;6.27;;;4.00;;
48002;SDS011;33768;48.578;11.574;2022-09-13T19:18:35;5.80;;;3.80;;
48002;SDS011;33768;48.578;11.574;2022-09-13T19:21:40;8.93;;;4.00;;
48002;SDS011;33768;48.578;11.574;2022-09-13T19:24:45;5.73;;;4.10;;
48002;SDS011;33768;48.578;11.574;2022-09-13T19:27:51;8.50;;;4.20;;
48002;SDS011;33768;48.578;11.574;2022-09-13T19:31:00;10.50;;;4.50;;
48002;SDS011;33768;48.578;11.574;2022-09-13T19:34:11;10.67;;;4.43;;
48002;SDS011;33768;48.578;11.574;2022-09-13T19:37:18;6.73;;;4.90;;
48002;SDS011;33768;48.578;11.574;2022-09-13T19:40:25;6.10;;;3.87;;
48002;SDS011;33768;48.578;11.574;2022-09-13T19:43:31;6.57;;;4.27;;
48002;SDS011;33768;48.578;11.574;2022-09-13T19:46:38;5.77;;;4.13;;
48002;SDS011;33768;48.578;11.574;2022-09-13T19:49:43;12.70;;;4.60;;
48002;SDS011;33768;48.578;11.574;2022-09-13T19:52:47;6.50;;;4.20;;
48002;SDS011;33768;48.578;11.574;2022-09-13T19:55:52;5.10;;;4.43;;
48002;SDS011;33768;48.578;11.574;2022-09-13T19:58:58;11.47;;;6.50;;
48002;SDS011;33768;48.578;11.574;2022-09-13T20:02:03;8.50;;;5.40;;
48002;SDS011;33768;48.578;11.574;2022-09-13T20:05:07;6.50;;;4.67;;
48002;SDS011;33768;48.578;11.574;2022-09-13T20:08:12;7.97;;;5.20;;
48002;SDS011;33768;48.578;11.574;2022-09-13T20:11:17;11.30;;;4.50;;
48002;SDS011;33768;48.578;11.574;2022-09-13T20:14:22;9.67;;;4.73;;
48002;SDS011;33768;48.578;11.574;2022-09-13T20:17:26;8.47;;;4.40;;
48002;SDS011;33768;48.578;11.574;2022-09-13T20:20:33;8.57;;;4.60;;
48002;SDS011;33768;48.578;11.574;2022-09-13T20:23:38;5.83;;;4.17;;
48002;SDS011;33768;48.578;11.574;2022-09-13T20:26:44;6.17;;;4.97;;
48002;SDS011;33768;48.578;11.574;2022-09-13T20:29:48;9.47;;;6.60;;
48002;SDS011;33768;48.578;11.574;2022-09-13T20:32:52;10.20;;;6.73;;
48002;SDS011;33768;48.578;11.574;2022-09-13T20:36:01;8.03;;;6.37;;
48002;SDS011;33768;48.578;11.574;2022-09-13T20:39:07;10.03;;;4.97;;
48002;SDS011;33768;48.578;11.574;2022-09-13T20:42:12;10.47;;;5.73;;
48002;SDS011;33768;48.578;11.574;2022-09-13T20:45:16;7.50;;;4.47;;
48002;SDS011;33768;48.578;11.574;2022-09-13T20:48:20;6.70;;;4.60;;
48002;SDS011;33768;48.578;11.574;2022-09-13T20:51:26;6.10;;;4.20;;
48002;SDS011;33768;48.578;11.574;2022-09-13T20:54:30;8.80;;;4.47;;
48002;SDS011;33768;48.578;11.574;2022-09-13T20:57:34;7.20;;;4.83;;
48002;SDS011;33768;48.578;11.574;2022-09-13T21:00:39;5.80;;;4.97;;
48002;SDS011;33768;48.578;11.574;2022-09-13T21:03:44;11.30;;;5.47;;
48002;SDS011;33768;48.578;11.574;2022-09-13T21:06:49;5.20;;;4.53;;
48002;SDS011;33768;48.578;11.574;2022-09-13T21:10:12;9.10;;;4.57;;
48002;SDS011;33768;48.578;11.574;2022-09-13T21:13:17;4.80;;;4.27;;